sensor_id;sensor_type;location;lat;lon;timestamp;pressure;altitude;pressure_sealevel;temperature;humidity
76519;BME280;67029;51.054;13.798;2023-08-21T00:01:10;100888.36;;;28.55;54.42
76519;BME280;67029;51.054;13.798;2023-08-21T00:03:40;100888.94;;;28.54;54.48
76519;BME280;67029;51.054;13.798;2023-08-21T00:06:10;100893.69;;;28.53;54.64
76519;BME280;67029;51.054;13.798;2023-08-21T00:08:40;100897.70;;;28.49;54.68
76519;BME280;67029;51.054;13.798;2023-08-21T00:11:10;100893.84;;;28.46;54.66
76519;BME280;67029;51.054;13.798;2023-08-21T00:13:40;100880.21;;;28.44;54.59
76519;BME280;67029;51.054;13.798;2023-08-21T00:16:11;100877.84;;;28.42;54.58
76519;BME280;67029;51.054;13.798;2023-08-21T00:18:40;100883.90;;;28.41;54.54
76519;BME280;67029;51.054;13.798;2023-08-21T00:21:10;100882.75;;;28.41;54.50
76519;BME280;67029;51.054;13.798;2023-08-21T00:23:40;100879.16;;;28.40;54.33
76519;BME280;67029;51.054;13.798;2023-08-21T00:26:10;100885.17;;;28.38;54.26
76519;BME280;67029;51.054;13.798;2023-08-21T00:28:40;100887.36;;;28.34;54.35
76519;BME280;67029;51.054;13.798;2023-08-21T00:31:10;100880.55;;;28.31;54.38
76519;BME280;67029;51.054;13.798;2023-08-21T00:33:40;100874.06;;;28.30;54.34
76519;BME280;67029;51.054;13.798;2023-08-21T00:36:11;100872.09;;;28.30;54.35
76519;BME280;67029;51.054;13.798;2023-08-21T00:38:41;100868.60;;;28.28;54.19
76519;BME280;67029;51.054;13.798;2023-08-21T00:41:12;100862.33;;;28.26;54.12
76519;BME280;67029;51.054;13.798;2023-08-21T00:43:41;100859.36;;;28.21;54.13
76519;BME280;67029;51.054;13.798;2023-08-21T00:46:11;100864.98;;;28.15;54.33
76519;BME280;67029;51.054;13.798;2023-08-21T00:48:42;100863.70;;;28.11;54.53
76519;BME280;67029;51.054;13.798;2023-08-21T00:51:15;100860.72;;;28.09;54.61
76519;BME280;67029;51.054;13.798;2023-08-21T00:53:44;100856.30;;;28.06;54.78
76519;BME280;67029;51.054;13.798;2023-08-21T00:56:15;100857.45;;;28.05;54.92
76519;BME280;67029;51.054;13.798;2023-08-21T00:58:45;100860.92;;;28.03;55.09
76519;BME280;67029;51.054;13.798;2023-08-21T01:01:16;100859.73;;;28.00;55.21
76519;BME280;67029;51.054;13.798;2023-08-21T01:03:45;100855.71;;;27.97;55.20
76519;BME280;67029;51.054;13.798;2023-08-21T01:06:15;100854.61;;;27.96;55.22
76519;BME280;67029;51.054;13.798;2023-08-21T01:09:24;100857.50;;;27.94;55.37
76519;BME280;67029;51.054;13.798;2023-08-21T01:16:16;100862.30;;;27.86;55.79
76519;BME280;67029;51.054;13.798;2023-08-21T01:18:47;100863.30;;;27.84;55.87
76519;BME280;67029;51.054;13.798;2023-08-21T01:21:17;100863.39;;;27.83;55.92
76519;BME280;67029;51.054;13.798;2023-08-21T01:23:47;100862.29;;;27.80;55.99
76519;BME280;67029;51.054;13.798;2023-08-21T01:26:17;100860.19;;;27.78;55.95
76519;BME280;67029;51.054;13.798;2023-08-21T01:28:47;100864.33;;;27.75;56.18
76519;BME280;67029;51.054;13.798;2023-08-21T01:31:30;100868.95;;;27.74;56.35
76519;BME280;67029;51.054;13.798;2023-08-21T01:33:53;100870.39;;;27.73;56.28
76519;BME280;67029;51.054;13.798;2023-08-21T01:36:18;100872.20;;;27.74;56.30
76519;BME280;67029;51.054;13.798;2023-08-21T01:38:48;100871.44;;;27.75;56.32
76519;BME280;67029;51.054;13.798;2023-08-21T01:41:18;100872.93;;;27.73;56.45
76519;BME280;67029;51.054;13.798;2023-08-21T01:43:48;100865.15;;;27.69;56.54
76519;BME280;67029;51.054;13.798;2023-08-21T01:46:19;100857.79;;;27.68;56.49
76519;BME280;67029;51.054;13.798;2023-08-21T01:48:49;100858.47;;;27.59;56.55
76519;BME280;67029;51.054;13.798;2023-08-21T01:51:19;100858.62;;;27.49;56.80
76519;BME280;67029;51.054;13.798;2023-08-21T01:53:49;100852.65;;;27.50;56.77
76519;BME280;67029;51.054;13.798;2023-08-21T01:56:19;100855.34;;;27.51;56.76
76519;BME280;67029;51.054;13.798;2023-08-21T01:58:49;100860.13;;;27.51;56.78
76519;BME280;67029;51.054;13.798;2023-08-21T02:01:19;100856.98;;;27.47;56.88
76519;BME280;67029;51.054;13.798;2023-08-21T02:03:49;100851.86;;;27.46;56.92
76519;BME280;67029;51.054;13.798;2023-08-21T02:06:19;100851.49;;;27.44;57.04
76519;BME280;67029;51.054;13.798;2023-08-21T02:08:49;100857.44;;;27.42;57.04
76519;BME280;67029;51.054;13.798;2023-08-21T02:11:19;100859.50;;;27.40;57.08
76519;BME280;67029;51.054;13.798;2023-08-21T02:13:49;100850.28;;;27.36;57.05
76519;BME280;67029;51.054;13.798;2023-08-21T02:16:19;100853.33;;;27.35;57.13
76519;BME280;67029;51.054;13.798;2023-08-21T02:18:49;100853.48;;;27.32;57.00
76519;BME280;67029;51.054;13.798;2023-08-21T02:21:19;100857.04;;;27.28;56.96
76519;BME280;67029;51.054;13.798;2023-08-21T02:23:49;100864.40;;;27.25;56.98
76519;BME280;67029;51.054;13.798;2023-08-21T02:26:20;100868.89;;;27.23;56.97
76519;BME280;67029;51.054;13.798;2023-08-21T02:28:49;100864.80;;;27.22;56.92
76519;BME280;67029;51.054;13.798;2023-08-21T02:31:19;100860.42;;;27.19;56.94
76519;BME280;67029;51.054;13.798;2023-08-21T02:33:49;100861.27;;;27.17;57.08
76519;BME280;67029;51.054;13.798;2023-08-21T02:36:19;100862.70;;;27.14;57.08
76519;BME280;67029;51.054;13.798;2023-08-21T02:38:49;100861.34;;;27.11;57.28
76519;BME280;67029;51.054;13.798;2023-08-21T02:41:19;100858.78;;;27.09;57.21
76519;BME280;67029;51.054;13.798;2023-08-21T02:43:50;100857.72;;;27.07;57.33
76519;BME280;67029;51.054;13.798;2023-08-21T02:46:20;100851.10;;;27.05;57.38
76519;BME280;67029;51.054;13.798;2023-08-21T02:48:50;100852.59;;;27.04;57.55
76519;BME280;67029;51.054;13.798;2023-08-21T02:51:20;100852.73;;;27.01;57.59
76519;BME280;67029;51.054;13.798;2023-08-21T02:53:50;100850.84;;;26.98;57.60
76519;BME280;67029;51.054;13.798;2023-08-21T02:56:20;100849.05;;;26.97;57.62
76519;BME280;67029;51.054;13.798;2023-08-21T02:58:50;100848.33;;;26.94;57.65
76519;BME280;67029;51.054;13.798;2023-08-21T03:01:20;100850.77;;;26.91;57.73
76519;BME280;67029;51.054;13.798;2023-08-21T03:03:50;100855.37;;;26.89;57.74
76519;BME280;67029;51.054;13.798;2023-08-21T03:06:20;100855.98;;;26.88;57.82
76519;BME280;67029;51.054;13.798;2023-08-21T03:08:50;100854.22;;;26.86;57.91
76519;BME280;67029;51.054;13.798;2023-08-21T03:11:20;100857.97;;;26.83;57.94
76519;BME280;67029;51.054;13.798;2023-08-21T03:13:50;100864.42;;;26.82;57.98
76519;BME280;67029;51.054;13.798;2023-08-21T03:16:20;100860.13;;;26.80;58.09
76519;BME280;67029;51.054;13.798;2023-08-21T03:18:57;100859.30;;;26.79;58.14
76519;BME280;67029;51.054;13.798;2023-08-21T03:21:20;100856.45;;;26.78;58.14
76519;BME280;67029;51.054;13.798;2023-08-21T03:23:55;100854.65;;;26.77;58.23
76519;BME280;67029;51.054;13.798;2023-08-21T03:26:21;100858.92;;;26.77;58.26
76519;BME280;67029;51.054;13.798;2023-08-21T03:28:51;100857.92;;;26.75;58.31
76519;BME280;67029;51.054;13.798;2023-08-21T03:31:21;100864.81;;;26.76;58.28
76519;BME280;67029;51.054;13.798;2023-08-21T03:33:51;100867.34;;;26.76;58.18
76519;BME280;67029;51.054;13.798;2023-08-21T03:36:22;100862.34;;;26.76;58.13
76519;BME280;67029;51.054;13.798;2023-08-21T03:38:52;100862.47;;;26.77;58.06
76519;BME280;67029;51.054;13.798;2023-08-21T03:41:22;100865.80;;;26.76;57.95
76519;BME280;67029;51.054;13.798;2023-08-21T03:43:52;100872.12;;;26.74;57.90
76519;BME280;67029;51.054;13.798;2023-08-21T03:46:22;100870.48;;;26.73;57.81
76519;BME280;67029;51.054;13.798;2023-08-21T03:48:52;100865.52;;;26.73;57.74
76519;BME280;67029;51.054;13.798;2023-08-21T03:51:22;100867.91;;;26.74;57.64
76519;BME280;67029;51.054;13.798;2023-08-21T03:53:52;100872.11;;;26.73;57.65
76519;BME280;67029;51.054;13.798;2023-08-21T03:56:22;100873.36;;;26.71;57.62
76519;BME280;67029;51.054;13.798;2023-08-21T03:58:52;100874.53;;;26.71;57.64
76519;BME280;67029;51.054;13.798;2023-08-21T04:01:22;100874.30;;;26.72;57.63
76519;BME280;67029;51.054;13.798;2023-08-21T04:03:52;100872.78;;;26.71;57.57
76519;BME280;67029;51.054;13.798;2023-08-21T04:06:22;100875.51;;;26.72;57.51
76519;BME280;67029;51.054;13.798;2023-08-21T04:08:52;100878.82;;;26.69;57.57
76519;BME280;67029;51.054;13.798;2023-08-21T04:11:22;100881.62;;;26.67;57.63
76519;BME280;67029;51.054;13.798;2023-08-21T04:13:52;100880.56;;;26.64;57.72
76519;BME280;67029;51.054;13.798;2023-08-21T04:16:22;100880.02;;;26.62;57.86
76519;BME280;67029;51.054;13.798;2023-08-21T04:18:52;100875.01;;;26.59;57.88
76519;BME280;67029;51.054;13.798;2023-08-21T04:21:22;100877.00;;;26.58;57.95
76519;BME280;67029;51.054;13.798;2023-08-21T04:23:52;100880.95;;;26.56;58.06
76519;BME280;67029;51.054;13.798;2023-08-21T04:26:22;100882.77;;;26.54;58.13
76519;BME280;67029;51.054;13.798;2023-08-21T04:28:52;100880.59;;;26.53;58.10
76519;BME280;67029;51.054;13.798;2023-08-21T04:31:22;100881.60;;;26.54;58.09
76519;BME280;67029;51.054;13.798;2023-08-21T04:33:52;100881.38;;;26.54;58.14
76519;BME280;67029;51.054;13.798;2023-08-21T04:36:22;100878.77;;;26.54;58.26
76519;BME280;67029;51.054;13.798;2023-08-21T04:38:52;100885.00;;;26.53;58.33
76519;BME280;67029;51.054;13.798;2023-08-21T04:41:22;100880.86;;;26.54;58.31
76519;BME280;67029;51.054;13.798;2023-08-21T04:43:52;100880.09;;;26.53;58.42
76519;BME280;67029;51.054;13.798;2023-08-21T04:46:22;100882.48;;;26.55;58.40
76519;BME280;67029;51.054;13.798;2023-08-21T04:48:53;100882.13;;;26.57;58.53
76519;BME280;67029;51.054;13.798;2023-08-21T04:51:22;100884.23;;;26.58;58.51
76519;BME280;67029;51.054;13.798;2023-08-21T04:53:52;100882.45;;;26.58;58.54
76519;BME280;67029;51.054;13.798;2023-08-21T04:56:23;100880.27;;;26.60;58.49
76519;BME280;67029;51.054;13.798;2023-08-21T04:58:52;100877.57;;;26.61;58.43
76519;BME280;67029;51.054;13.798;2023-08-21T05:01:22;100879.31;;;26.63;58.49
76519;BME280;67029;51.054;13.798;2023-08-21T05:03:53;100880.53;;;26.62;58.52
76519;BME280;67029;51.054;13.798;2023-08-21T05:06:23;100883.58;;;26.64;58.49
76519;BME280;67029;51.054;13.798;2023-08-21T05:08:53;100884.97;;;26.67;58.46
76519;BME280;67029;51.054;13.798;2023-08-21T05:11:23;100891.09;;;26.70;58.53
76519;BME280;67029;51.054;13.798;2023-08-21T05:13:53;100890.30;;;26.71;58.48
76519;BME280;67029;51.054;13.798;2023-08-21T05:16:23;100895.38;;;26.75;58.53
76519;BME280;67029;51.054;13.798;2023-08-21T05:18:53;100897.48;;;26.77;58.53
76519;BME280;67029;51.054;13.798;2023-08-21T05:21:23;100899.87;;;26.73;58.64
76519;BME280;67029;51.054;13.798;2023-08-21T05:23:53;100902.71;;;26.74;58.66
76519;BME280;67029;51.054;13.798;2023-08-21T05:26:23;100904.00;;;26.80;58.66
76519;BME280;67029;51.054;13.798;2023-08-21T05:28:53;100903.95;;;26.86;58.52
76519;BME280;67029;51.054;13.798;2023-08-21T05:31:23;100903.60;;;26.86;58.54
76519;BME280;67029;51.054;13.798;2023-08-21T05:33:53;100907.89;;;26.83;58.69
76519;BME280;67029;51.054;13.798;2023-08-21T05:36:23;100907.34;;;26.90;58.63
76519;BME280;67029;51.054;13.798;2023-08-21T05:38:53;100908.48;;;26.94;58.55
76519;BME280;67029;51.054;13.798;2023-08-21T05:41:23;100903.74;;;26.97;58.57
76519;BME280;67029;51.054;13.798;2023-08-21T05:43:53;100909.89;;;27.05;58.46
76519;BME280;67029;51.054;13.798;2023-08-21T05:46:23;100910.23;;;27.09;58.38
76519;BME280;67029;51.054;13.798;2023-08-21T05:48:53;100912.45;;;27.06;58.42
76519;BME280;67029;51.054;13.798;2023-08-21T05:51:23;100913.17;;;27.08;58.51
76519;BME280;67029;51.054;13.798;2023-08-21T05:53:53;100910.00;;;27.18;58.35
76519;BME280;67029;51.054;13.798;2023-08-21T05:56:23;100910.97;;;27.26;58.20
76519;BME280;67029;51.054;13.798;2023-08-21T05:58:53;100907.88;;;27.20;58.33
76519;BME280;67029;51.054;13.798;2023-08-21T06:01:23;100908.30;;;27.22;58.41
76519;BME280;67029;51.054;13.798;2023-08-21T06:03:53;100905.56;;;27.35;58.18
76519;BME280;67029;51.054;13.798;2023-08-21T06:06:23;100906.29;;;27.50;57.94
76519;BME280;67029;51.054;13.798;2023-08-21T06:08:53;100905.42;;;27.60;57.81
76519;BME280;67029;51.054;13.798;2023-08-21T06:11:23;100906.70;;;27.68;57.70
76519;BME280;67029;51.054;13.798;2023-08-21T06:13:53;100904.50;;;27.74;57.56
76519;BME280;67029;51.054;13.798;2023-08-21T06:16:23;100904.38;;;27.82;57.42
76519;BME280;67029;51.054;13.798;2023-08-21T06:18:53;100899.20;;;27.86;57.27
76519;BME280;67029;51.054;13.798;2023-08-21T06:21:23;100898.05;;;27.91;57.17
76519;BME280;67029;51.054;13.798;2023-08-21T06:23:53;100902.48;;;27.96;57.07
76519;BME280;67029;51.054;13.798;2023-08-21T06:26:23;100904.67;;;27.99;57.02
76519;BME280;67029;51.054;13.798;2023-08-21T06:28:54;100903.59;;;28.04;56.89
76519;BME280;67029;51.054;13.798;2023-08-21T06:31:24;100907.64;;;28.11;56.85
76519;BME280;67029;51.054;13.798;2023-08-21T06:33:54;100908.56;;;28.10;56.95
76519;BME280;67029;51.054;13.798;2023-08-21T06:36:24;100906.80;;;28.21;56.77
76519;BME280;67029;51.054;13.798;2023-08-21T06:38:55;100913.75;;;28.21;56.84
76519;BME280;67029;51.054;13.798;2023-08-21T06:41:25;100908.38;;;28.22;56.94
76519;BME280;67029;51.054;13.798;2023-08-21T06:43:55;100909.06;;;28.21;57.04
76519;BME280;67029;51.054;13.798;2023-08-21T06:46:25;100912.81;;;28.37;56.74
76519;BME280;67029;51.054;13.798;2023-08-21T06:48:55;100912.80;;;28.49;56.58
76519;BME280;67029;51.054;13.798;2023-08-21T06:51:25;100908.56;;;28.62;56.42
76519;BME280;67029;51.054;13.798;2023-08-21T06:53:55;100911.69;;;28.74;56.25
76519;BME280;67029;51.054;13.798;2023-08-21T06:56:25;100916.38;;;28.84;56.09
76519;BME280;67029;51.054;13.798;2023-08-21T06:58:55;100919.61;;;28.92;55.89
76519;BME280;67029;51.054;13.798;2023-08-21T07:01:25;100920.38;;;28.95;55.70
76519;BME280;67029;51.054;13.798;2023-08-21T07:03:55;100925.72;;;29.02;55.53
76519;BME280;67029;51.054;13.798;2023-08-21T07:06:27;100923.59;;;29.11;55.42
76519;BME280;67029;51.054;13.798;2023-08-21T07:08:56;100919.01;;;29.13;55.41
76519;BME280;67029;51.054;13.798;2023-08-21T07:11:26;100924.14;;;29.19;55.38
76519;BME280;67029;51.054;13.798;2023-08-21T07:13:56;100923.26;;;29.38;55.08
76519;BME280;67029;51.054;13.798;2023-08-21T07:16:26;100926.83;;;29.57;54.90
76519;BME280;67029;51.054;13.798;2023-08-21T07:18:56;100932.74;;;29.76;54.63
76519;BME280;67029;51.054;13.798;2023-08-21T07:21:26;100928.48;;;29.86;54.39
76519;BME280;67029;51.054;13.798;2023-08-21T07:23:57;100932.57;;;29.98;54.17
76519;BME280;67029;51.054;13.798;2023-08-21T07:26:27;100935.69;;;30.10;53.92
76519;BME280;67029;51.054;13.798;2023-08-21T07:28:57;100934.19;;;30.17;53.84
76519;BME280;67029;51.054;13.798;2023-08-21T07:31:27;100932.00;;;30.28;53.63
76519;BME280;67029;51.054;13.798;2023-08-21T07:33:58;100934.16;;;30.44;53.22
76519;BME280;67029;51.054;13.798;2023-08-21T07:36:28;100938.19;;;30.57;52.89
76519;BME280;67029;51.054;13.798;2023-08-21T07:38:58;100933.67;;;30.67;52.66
76519;BME280;67029;51.054;13.798;2023-08-21T07:41:28;100936.36;;;30.94;52.12
76519;BME280;67029;51.054;13.798;2023-08-21T07:43:58;100937.45;;;31.08;52.03
76519;BME280;67029;51.054;13.798;2023-08-21T07:46:28;100940.73;;;31.34;51.57
76519;BME280;67029;51.054;13.798;2023-08-21T07:48:58;100939.89;;;31.45;51.02
76519;BME280;67029;51.054;13.798;2023-08-21T07:51:28;100939.08;;;31.61;50.79
76519;BME280;67029;51.054;13.798;2023-08-21T07:53:58;100936.29;;;31.91;50.27
76519;BME280;67029;51.054;13.798;2023-08-21T07:56:28;100939.22;;;32.06;49.79
76519;BME280;67029;51.054;13.798;2023-08-21T07:58:58;100940.30;;;32.32;49.46
76519;BME280;67029;51.054;13.798;2023-08-21T08:01:28;100938.45;;;32.55;49.31
76519;BME280;67029;51.054;13.798;2023-08-21T08:03:58;100937.80;;;32.81;48.89
76519;BME280;67029;51.054;13.798;2023-08-21T08:06:28;100937.82;;;33.07;48.45
76519;BME280;67029;51.054;13.798;2023-08-21T08:08:58;100932.86;;;33.27;47.99
76519;BME280;67029;51.054;13.798;2023-08-21T08:11:29;100933.41;;;33.48;47.41
76519;BME280;67029;51.054;13.798;2023-08-21T08:13:59;100936.57;;;33.64;47.18
76519;BME280;67029;51.054;13.798;2023-08-21T08:16:29;100939.50;;;33.85;46.94
76519;BME280;67029;51.054;13.798;2023-08-21T08:18:59;100939.16;;;34.06;46.56
76519;BME280;67029;51.054;13.798;2023-08-21T08:21:29;100940.84;;;34.25;46.21
76519;BME280;67029;51.054;13.798;2023-08-21T08:23:59;100938.59;;;34.37;45.77
76519;BME280;67029;51.054;13.798;2023-08-21T08:26:29;100939.80;;;34.51;45.27
76519;BME280;67029;51.054;13.798;2023-08-21T08:28:59;100942.72;;;34.69;44.94
76519;BME280;67029;51.054;13.798;2023-08-21T08:31:29;100945.59;;;34.91;44.64
76519;BME280;67029;51.054;13.798;2023-08-21T08:33:59;100944.11;;;35.09;44.54
76519;BME280;67029;51.054;13.798;2023-08-21T08:36:29;100946.27;;;35.20;44.36
76519;BME280;67029;51.054;13.798;2023-08-21T08:38:59;100947.71;;;35.37;44.16
76519;BME280;67029;51.054;13.798;2023-08-21T08:41:44;100945.91;;;35.52;43.93
76519;BME280;67029;51.054;13.798;2023-08-21T08:44:01;100945.52;;;35.67;43.71
76519;BME280;67029;51.054;13.798;2023-08-21T08:46:29;100944.48;;;35.80;43.32
76519;BME280;67029;51.054;13.798;2023-08-21T08:49:00;100943.20;;;35.87;42.57
76519;BME280;67029;51.054;13.798;2023-08-21T08:51:31;100942.57;;;35.91;42.15
76519;BME280;67029;51.054;13.798;2023-08-21T08:54:00;100942.11;;;35.77;41.85
76519;BME280;67029;51.054;13.798;2023-08-21T08:56:30;100941.81;;;35.88;41.94
76519;BME280;67029;51.054;13.798;2023-08-21T08:59:00;100942.25;;;36.01;41.18
76519;BME280;67029;51.054;13.798;2023-08-21T09:01:30;100944.89;;;36.08;40.58
76519;BME280;67029;51.054;13.798;2023-08-21T09:04:01;100945.36;;;36.16;40.61
76519;BME280;67029;51.054;13.798;2023-08-21T09:06:32;100947.09;;;36.34;39.89
76519;BME280;67029;51.054;13.798;2023-08-21T09:09:02;100946.50;;;36.50;39.86
76519;BME280;67029;51.054;13.798;2023-08-21T09:11:32;100949.79;;;36.45;39.39
76519;BME280;67029;51.054;13.798;2023-08-21T09:14:02;100947.91;;;36.45;38.68
76519;BME280;67029;51.054;13.798;2023-08-21T09:16:32;100945.54;;;36.34;39.22
76519;BME280;67029;51.054;13.798;2023-08-21T09:19:02;100947.98;;;36.40;39.31
76519;BME280;67029;51.054;13.798;2023-08-21T09:21:32;100940.98;;;36.44;39.24
76519;BME280;67029;51.054;13.798;2023-08-21T09:24:03;100944.28;;;36.59;39.43
76519;BME280;67029;51.054;13.798;2023-08-21T09:26:32;100944.94;;;36.77;39.46
76519;BME280;67029;51.054;13.798;2023-08-21T09:29:04;100941.47;;;36.85;39.09
76519;BME280;67029;51.054;13.798;2023-08-21T09:31:33;100944.95;;;36.90;39.06
76519;BME280;67029;51.054;13.798;2023-08-21T09:34:04;100945.68;;;36.92;38.60
76519;BME280;67029;51.054;13.798;2023-08-21T09:36:34;100949.02;;;36.99;38.74
76519;BME280;67029;51.054;13.798;2023-08-21T09:39:03;100944.08;;;37.09;38.55
76519;BME280;67029;51.054;13.798;2023-08-21T09:41:33;100945.52;;;37.12;37.90
76519;BME280;67029;51.054;13.798;2023-08-21T09:44:04;100938.80;;;37.13;38.02
76519;BME280;67029;51.054;13.798;2023-08-21T09:46:34;100942.49;;;37.20;37.98
76519;BME280;67029;51.054;13.798;2023-08-21T09:49:04;100940.78;;;37.46;37.68
76519;BME280;67029;51.054;13.798;2023-08-21T09:51:35;100941.97;;;37.76;37.11
76519;BME280;67029;51.054;13.798;2023-08-21T09:54:05;100935.38;;;37.85;37.03
76519;BME280;67029;51.054;13.798;2023-08-21T09:56:35;100931.11;;;38.17;36.52
76519;BME280;67029;51.054;13.798;2023-08-21T09:59:06;100928.59;;;38.48;36.26
76519;BME280;67029;51.054;13.798;2023-08-21T10:01:36;100924.77;;;38.63;35.86
76519;BME280;67029;51.054;13.798;2023-08-21T10:04:08;100923.22;;;38.66;34.81
76519;BME280;67029;51.054;13.798;2023-08-21T10:06:38;100925.06;;;38.74;35.31
76519;BME280;67029;51.054;13.798;2023-08-21T10:09:08;100922.56;;;39.18;35.28
76519;BME280;67029;51.054;13.798;2023-08-21T10:11:38;100921.92;;;39.47;34.88
76519;BME280;67029;51.054;13.798;2023-08-21T10:14:08;100920.16;;;39.73;34.49
76519;BME280;67029;51.054;13.798;2023-08-21T10:16:38;100911.08;;;40.04;33.91
76519;BME280;67029;51.054;13.798;2023-08-21T10:19:08;100916.11;;;40.24;33.75
76519;BME280;67029;51.054;13.798;2023-08-21T10:21:38;100919.99;;;40.42;33.52
76519;BME280;67029;51.054;13.798;2023-08-21T10:24:08;100920.33;;;40.50;33.07
76519;BME280;67029;51.054;13.798;2023-08-21T10:26:38;100919.22;;;40.60;32.90
76519;BME280;67029;51.054;13.798;2023-08-21T10:29:09;100919.07;;;40.61;32.36
76519;BME280;67029;51.054;13.798;2023-08-21T10:31:40;100925.70;;;40.54;32.12
76519;BME280;67029;51.054;13.798;2023-08-21T10:34:10;100921.95;;;40.45;32.07
76519;BME280;67029;51.054;13.798;2023-08-21T10:39:17;100915.10;;;40.03;31.83
76519;BME280;67029;51.054;13.798;2023-08-21T10:41:41;100912.22;;;39.84;31.80
76519;BME280;67029;51.054;13.798;2023-08-21T10:44:12;100909.48;;;39.68;31.51
76519;BME280;67029;51.054;13.798;2023-08-21T10:46:51;100911.35;;;39.57;31.60
76519;BME280;67029;51.054;13.798;2023-08-21T10:49:12;100912.23;;;39.57;31.94
76519;BME280;67029;51.054;13.798;2023-08-21T10:51:43;100909.56;;;39.53;31.70
76519;BME280;67029;51.054;13.798;2023-08-21T10:54:15;100909.66;;;39.64;31.80
76519;BME280;67029;51.054;13.798;2023-08-21T10:56:42;100904.73;;;39.83;31.91
76519;BME280;67029;51.054;13.798;2023-08-21T10:59:13;100908.17;;;39.93;31.38
76519;BME280;67029;51.054;13.798;2023-08-21T11:01:44;100903.58;;;40.11;30.78
76519;BME280;67029;51.054;13.798;2023-08-21T11:04:12;100900.17;;;40.28;30.30
76519;BME280;67029;51.054;13.798;2023-08-21T11:06:43;100895.47;;;40.54;29.90
76519;BME280;67029;51.054;13.798;2023-08-21T11:09:13;100895.67;;;40.83;30.28
76519;BME280;67029;51.054;13.798;2023-08-21T11:11:43;100899.77;;;41.23;30.07
76519;BME280;67029;51.054;13.798;2023-08-21T11:14:13;100898.03;;;41.55;29.88
76519;BME280;67029;51.054;13.798;2023-08-21T11:16:43;100899.41;;;41.88;29.75
76519;BME280;67029;51.054;13.798;2023-08-21T11:19:13;100897.48;;;42.21;29.19
76519;BME280;67029;51.054;13.798;2023-08-21T11:21:51;100898.29;;;42.50;28.78
76519;BME280;67029;51.054;13.798;2023-08-21T11:24:14;100894.28;;;42.72;28.29
76519;BME280;67029;51.054;13.798;2023-08-21T11:26:44;100895.95;;;42.99;28.33
76519;BME280;67029;51.054;13.798;2023-08-21T11:29:14;100885.12;;;43.23;27.69
76519;BME280;67029;51.054;13.798;2023-08-21T11:31:45;100889.17;;;43.40;27.60
76519;BME280;67029;51.054;13.798;2023-08-21T11:34:21;100885.25;;;43.72;27.46
76519;BME280;67029;51.054;13.798;2023-08-21T11:36:45;100884.31;;;44.04;27.23
76519;BME280;67029;51.054;13.798;2023-08-21T11:39:15;100882.82;;;44.34;26.57
76519;BME280;67029;51.054;13.798;2023-08-21T11:41:55;100881.93;;;44.16;26.35
76519;BME280;67029;51.054;13.798;2023-08-21T11:44:16;100880.91;;;44.34;26.57
76519;BME280;67029;51.054;13.798;2023-08-21T11:46:46;100879.69;;;44.58;26.45
76519;BME280;67029;51.054;13.798;2023-08-21T11:49:16;100877.97;;;44.79;26.25
76519;BME280;67029;51.054;13.798;2023-08-21T11:51:46;100878.91;;;45.08;26.16
76519;BME280;67029;51.054;13.798;2023-08-21T11:54:17;100880.39;;;45.03;24.80
76519;BME280;67029;51.054;13.798;2023-08-21T11:56:47;100872.20;;;44.96;25.00
76519;BME280;67029;51.054;13.798;2023-08-21T11:59:23;100876.85;;;45.19;25.15
76519;BME280;67029;51.054;13.798;2023-08-21T12:01:50;100874.23;;;45.45;24.96
76519;BME280;67029;51.054;13.798;2023-08-21T12:04:18;100879.98;;;45.62;24.80
76519;BME280;67029;51.054;13.798;2023-08-21T12:06:48;100878.03;;;45.62;23.96
76519;BME280;67029;51.054;13.798;2023-08-21T12:09:18;100874.73;;;45.26;24.49
76519;BME280;67029;51.054;13.798;2023-08-21T12:11:48;100876.38;;;45.26;24.14
76519;BME280;67029;51.054;13.798;2023-08-21T12:14:18;100878.14;;;45.36;23.83
76519;BME280;67029;51.054;13.798;2023-08-21T12:16:48;100877.73;;;45.56;23.78
76519;BME280;67029;51.054;13.798;2023-08-21T12:19:18;100881.08;;;45.55;24.01
76519;BME280;67029;51.054;13.798;2023-08-21T12:21:48;100879.11;;;45.39;23.98
76519;BME280;67029;51.054;13.798;2023-08-21T12:24:18;100878.27;;;45.52;24.00
76519;BME280;67029;51.054;13.798;2023-08-21T12:26:48;100880.53;;;45.67;24.00
76519;BME280;67029;51.054;13.798;2023-08-21T12:29:18;100879.91;;;45.82;23.94
76519;BME280;67029;51.054;13.798;2023-08-21T12:31:48;100877.09;;;45.91;23.78
76519;BME280;67029;51.054;13.798;2023-08-21T12:34:18;100878.32;;;45.76;23.76
76519;BME280;67029;51.054;13.798;2023-08-21T12:36:50;100877.52;;;45.74;23.21
76519;BME280;67029;51.054;13.798;2023-08-21T12:39:18;100871.18;;;45.76;23.42
76519;BME280;67029;51.054;13.798;2023-08-21T12:41:48;100872.55;;;45.66;23.18
76519;BME280;67029;51.054;13.798;2023-08-21T12:44:18;100872.91;;;45.40;22.45
76519;BME280;67029;51.054;13.798;2023-08-21T12:46:48;100862.77;;;44.80;23.19
76519;BME280;67029;51.054;13.798;2023-08-21T12:49:18;100860.54;;;44.84;23.42
76519;BME280;67029;51.054;13.798;2023-08-21T12:51:48;100864.45;;;44.77;23.57
76519;BME280;67029;51.054;13.798;2023-08-21T12:54:18;100863.95;;;44.56;23.57
76519;BME280;67029;51.054;13.798;2023-08-21T12:56:48;100861.33;;;44.58;23.36
76519;BME280;67029;51.054;13.798;2023-08-21T12:59:18;100860.73;;;44.32;23.48
76519;BME280;67029;51.054;13.798;2023-08-21T13:01:48;100856.23;;;44.34;23.82